This is the latest recevied weather packets stored in our database for station/object DC1NF-6. If no packets are shown the sender has not sent any weather packets the latest 10 day(s).
| Time | Temp. | Humidity | Pressure | Rain* | Wind** | Luminosity | Snow |
|---|---|---|---|---|---|---|---|
| 1777661161 | 16.67° C | 46% | 1024.7 hPa | 0 mm | - | - | - |
| 1777660557 | 16.67° C | 45% | 1024.8 hPa | 0 mm | - | - | - |
| 1777659954 | 17.22° C | 44% | 1024.8 hPa | 0 mm | - | - | - |
| 1777659351 | 17.78° C | 43% | 1024.7 hPa | 0 mm | - | - | - |
| 1777658747 | 18.33° C | 41% | 1024.6 hPa | 0 mm | - | - | - |
| 1777658144 | 19.44° C | 38% | 1024.6 hPa | 0 mm | - | - | - |
| 1777657540 | 20° C | 37% | 1024.6 hPa | 0 mm | - | - | - |
| 1777656937 | 20° C | 35% | 1024.6 hPa | 0 mm | - | - | - |
| 1777656333 | 20° C | 37% | 1024.6 hPa | 0 mm | - | - | - |
| 1777655730 | 20.56° C | 35% | 1024.7 hPa | 0 mm | - | - | - |
| 1777655126 | 20.56° C | 35% | 1024.7 hPa | 0 mm | - | - | - |
| 1777654522 | 20.56° C | 35% | 1024.7 hPa | 0 mm | - | - | - |
| 1777653919 | 20.56° C | 35% | 1024.8 hPa | 0 mm | - | - | - |
| 1777653315 | 20.56° C | 35% | 1024.8 hPa | 0 mm | - | - | - |
| 1777652772 | 20.56° C | 36% | 1024.9 hPa | 0 mm | - | - | - |
| 1777652168 | 20.56° C | 35% | 1024.9 hPa | 0 mm | - | - | - |
| 1777651565 | 20.56° C | 34% | 1025 hPa | 0 mm | - | - | - |
| 1777650962 | 20.56° C | 35% | 1025.1 hPa | 0 mm | - | - | - |
| 1777650358 | 21.11° C | 34% | 1025.1 hPa | 0 mm | - | - | - |
| 1777649754 | 20.56° C | 34% | 1025.2 hPa | 0 mm | - | - | - |
| 1777649152 | 21.11° C | 34% | 1025.3 hPa | 0 mm | - | - | - |
| 1777648548 | 21.11° C | 34% | 1025.5 hPa | 0 mm | - | - | - |
| 1777647944 | 21.11° C | 34% | 1025.6 hPa | 0 mm | - | - | - |
| 1777647341 | 21.11° C | 34% | 1025.7 hPa | 0 mm | - | - | - |
| 1777646738 | 21.11° C | 34% | 1025.8 hPa | 0 mm | - | - | - |
* Rain latest hour (hover to see other rain measurements)
** Current wind speed in m/s (hover to see current wind gust speed)